Time;durP1;ratioP1;P1;durP2;ratioP2;P2;SDS_P1;SDS_P2;PMS_P1;PMS_P2;Temp;Humidity;BMP_temperature;BMP_pressure;BME280_temperature;BME280_humidity;BME280_pressure;Samples;Min_cycle;Max_cycle;Signal;HPM_P1;HPM_P2
2022/06/24 00:00:08;;;;;;;;;;;26.60;53.90;;;;;;5030073;28;20687;-66
2022/06/24 00:02:34;;;;;;;2.83;1.20;;;26.60;53.90;;;;;;5031210;28;20317;-65
2022/06/24 00:05:02;;;;;;;2.75;1.40;;;26.60;53.80;;;;;;5032310;28;20043;-65
2022/06/24 00:07:28;;;;;;;4.73;1.33;;;26.60;53.90;;;;;;5026319;28;20859;-65
2022/06/24 00:09:54;;;;;;;1.88;1.10;;;26.60;53.80;;;;;;5033871;28;20029;-61
2022/06/24 00:12:23;;;;;;;2.55;1.20;;;26.60;53.80;;;;;;5029056;28;20413;-65
2022/06/24 00:15:00;;;;;;;2.42;1.30;;;26.60;53.80;;;;;;5031958;28;20029;-65
2022/06/24 00:17:32;;;;;;;2.55;1.20;;;26.60;53.80;;;;;;5025681;28;20044;-65
2022/06/24 00:20:00;;;;;;;2.67;1.20;;;26.60;53.90;;;;;;5027679;28;20064;-65
2022/06/24 00:22:28;;;;;;;2.63;1.30;;;26.60;53.90;;;;;;5023741;28;20064;-61
2022/06/24 00:25:21;;;;;;;2.55;1.38;;;26.60;53.80;;;;;;5032064;28;20461;-65
2022/06/24 00:28:09;;;;;;;3.10;1.38;;;26.50;53.70;;;;;;5027960;28;20033;-65
2022/06/24 00:30:43;;;;;;;1.92;1.20;;;26.60;53.80;;;;;;5030884;28;20033;-65
2022/06/24 00:33:23;;;;;;;1.90;1.10;;;26.50;53.70;;;;;;5029385;28;20060;-62
2022/06/24 00:35:56;;;;;;;2.20;1.17;;;26.60;53.80;;;;;;5029251;28;20513;-65
2022/06/24 00:38:22;;;;;;;2.30;1.30;;;26.60;53.80;;;;;;5028670;28;20099;-65
2022/06/24 00:41:10;;;;;;;2.40;1.20;;;26.60;53.80;;;;;;5029963;28;20041;-63
2022/06/24 00:43:42;;;;;;;2.78;1.20;;;26.50;53.70;;;;;;5030354;28;20041;-63
2022/06/24 00:46:22;;;;;;;1.90;1.00;;;26.60;53.80;;;;;;5029982;28;20025;-65
2022/06/24 00:48:50;;;;;;;2.10;1.10;;;26.60;53.90;;;;;;5031033;28;20083;-65
2022/06/24 00:51:17;;;;;;;1.83;1.10;;;26.60;53.70;;;;;;5026024;28;20025;-66
2022/06/24 00:53:45;;;;;;;2.20;1.13;;;26.50;53.70;;;;;;5031688;28;20183;-65
2022/06/24 00:56:16;;;;;;;2.67;1.45;;;26.60;53.80;;;;;;5028223;28;20025;-65
2022/06/24 00:58:59;;;;;;;2.25;1.30;;;26.50;53.70;;;;;;5031179;28;20020;-66
2022/06/24 01:01:35;;;;;;;2.15;1.15;;;26.50;53.70;;;;;;5028351;28;20041;-67
2022/06/24 01:04:03;;;;;;;2.50;1.30;;;26.50;54.20;;;;;;5030905;28;20510;-67
2022/06/24 01:06:30;;;;;;;1.60;1.10;;;26.60;53.80;;;;;;5030701;28;20132;-67
2022/06/24 01:08:57;;;;;;;2.60;1.20;;;26.50;53.80;;;;;;5028156;28;21179;-67
2022/06/24 01:11:32;;;;;;;2.25;1.10;;;26.50;53.70;;;;;;5029695;28;20028;-66
2022/06/24 01:13:58;;;;;;;2.05;1.10;;;26.50;53.70;;;;;;5028179;28;20033;-68
2022/06/24 01:16:25;;;;;;;1.75;1.10;;;26.50;53.80;;;;;;5027709;28;20620;-67
2022/06/24 01:19:02;;;;;;;2.50;1.20;;;26.50;54.20;;;;;;5028724;28;20037;-67
2022/06/24 01:21:30;;;;;;;1.42;1.00;;;26.50;53.70;;;;;;5027042;28;20043;-67
2022/06/24 01:24:05;;;;;;;1.70;1.03;;;26.50;53.60;;;;;;5032507;28;20502;-67
2022/06/24 01:26:31;;;;;;;2.75;1.25;;;26.50;53.70;;;;;;5028532;28;20331;-67
2022/06/24 01:28:57;;;;;;;3.83;1.38;;;26.50;53.80;;;;;;5031392;28;20558;-66
2022/06/24 01:31:22;;;;;;;2.53;1.20;;;26.50;53.70;;;;;;5023507;28;20890;-66
2022/06/24 01:33:48;;;;;;;1.73;0.95;;;26.50;53.60;;;;;;5027543;28;20037;-64
2022/06/24 01:36:13;;;;;;;2.08;1.10;;;26.50;53.60;;;;;;5026089;28;20091;-68
2022/06/24 01:38:39;;;;;;;2.05;1.15;;;26.50;53.80;;;;;;5026354;28;20048;-65
2022/06/24 01:41:04;;;;;;;2.13;1.10;;;26.50;53.70;;;;;;5027580;28;20032;-66
2022/06/24 01:43:30;;;;;;;2.30;1.35;;;26.50;53.60;;;;;;5024882;28;20096;-63
2022/06/24 01:45:56;;;;;;;2.63;1.30;;;26.50;53.70;;;;;;5027391;28;20147;-63
2022/06/24 01:48:22;;;;;;;1.92;1.15;;;26.50;53.80;;;;;;5028750;28;20041;-68
2022/06/24 01:50:47;;;;;;;1.80;0.93;;;26.50;53.80;;;;;;5023361;28;20043;-65
2022/06/24 01:53:13;;;;;;;2.03;1.10;;;26.50;53.70;;;;;;5024412;28;20083;-65
2022/06/24 01:55:38;;;;;;;1.83;1.00;;;26.50;53.70;;;;;;5027034;28;20088;-67
2022/06/24 01:58:04;;;;;;;2.42;1.00;;;26.50;53.60;;;;;;5021457;28;20021;-66
2022/06/24 02:00:30;;;;;;;1.95;1.05;;;26.50;53.70;;;;;;5025783;28;20033;-65
2022/06/24 02:02:56;;;;;;;3.15;1.13;;;26.50;53.80;;;;;;5026570;28;20028;-66
2022/06/24 02:05:26;;;;;;;2.00;1.00;;;26.50;53.70;;;;;;5028214;28;20366;-66
2022/06/24 02:07:51;;;;;;;1.73;1.05;;;26.50;53.80;;;;;;5028033;28;20021;-66
2022/06/24 02:15:45;;;;;;;1.50;0.90;;;26.50;53.80;;;;;;5030955;28;20041;-66
2022/06/24 02:18:11;;;;;;;1.58;1.05;;;26.50;53.80;;;;;;5025768;28;20033;-66
2022/06/24 02:20:37;;;;;;;2.13;1.10;;;26.50;53.90;;;;;;5026892;28;20120;-67
2022/06/24 02:23:03;;;;;;;1.90;1.00;;;26.50;53.80;;;;;;5027249;28;20749;-65
2022/06/24 02:25:28;;;;;;;1.75;1.17;;;26.50;53.70;;;;;;5026922;28;20035;-67
2022/06/24 02:27:54;;;;;;;2.85;1.27;;;26.50;53.70;;;;;;5031211;28;20075;-67
2022/06/24 02:30:20;;;;;;;1.27;0.85;;;26.50;53.80;;;;;;5027335;28;20044;-66
2022/06/24 02:32:45;;;;;;;1.50;1.00;;;26.50;53.80;;;;;;5028161;28;20044;-67
2022/06/24 02:35:11;;;;;;;1.48;1.00;;;26.50;53.80;;;;;;5027429;28;20068;-66
2022/06/24 02:37:37;;;;;;;1.50;1.00;;;26.50;53.80;;;;;;5025814;28;20109;-64
2022/06/24 02:40:45;;;;;;;2.25;1.00;;;26.50;53.80;;;;;;5030520;28;20398;-66
2022/06/24 02:42:54;;;;;;;1.20;0.80;;;26.50;53.90;;;;;;5029564;28;20041;-67
2022/06/24 02:45:20;;;;;;;1.50;0.90;;;26.50;53.80;;;;;;5028708;28;20053;-67
2022/06/24 02:47:45;;;;;;;0.88;0.80;;;26.50;53.80;;;;;;5020809;28;20088;-67
2022/06/24 02:50:11;;;;;;;1.38;0.90;;;26.50;53.80;;;;;;5034849;28;20041;-66
2022/06/24 02:52:37;;;;;;;1.77;1.00;;;26.50;54.30;;;;;;5030566;28;20036;-64
2022/06/24 02:55:02;;;;;;;1.60;0.80;;;26.50;53.80;;;;;;5031741;28;20021;-65
2022/06/24 02:57:28;;;;;;;1.35;0.90;;;26.50;53.80;;;;;;5031562;28;20056;-65
2022/06/24 02:59:54;;;;;;;1.55;0.90;;;26.50;53.80;;;;;;5029282;28;20654;-65
2022/06/24 03:02:19;;;;;;;1.48;0.95;;;26.50;53.70;;;;;;5030248;28;20094;-65
2022/06/24 03:04:45;;;;;;;1.50;0.80;;;26.40;53.70;;;;;;5032271;28;20124;-67
2022/06/24 03:07:10;;;;;;;1.50;0.90;;;26.40;53.70;;;;;;5032169;28;20037;-65
2022/06/24 03:09:36;;;;;;;1.90;1.00;;;26.40;53.70;;;;;;5032285;28;20505;-66
2022/06/24 03:12:02;;;;;;;1.77;0.85;;;26.40;53.70;;;;;;5034153;28;20103;-66
2022/06/24 03:14:28;;;;;;;2.10;1.02;;;26.40;53.70;;;;;;5027660;28;20033;-66
2022/06/24 03:16:53;;;;;;;2.58;1.00;;;26.40;53.70;;;;;;5030625;28;20048;-66
2022/06/24 03:19:19;;;;;;;1.27;0.88;;;26.50;53.70;;;;;;5031106;28;20033;-66
2022/06/24 03:21:45;;;;;;;1.23;0.70;;;26.40;53.70;;;;;;5031158;28;20025;-67
2022/06/24 03:24:10;;;;;;;1.92;1.10;;;26.40;53.60;;;;;;5031602;28;20029;-63
2022/06/24 03:26:36;;;;;;;1.25;0.90;;;26.50;53.70;;;;;;5014001;28;20049;-67
2022/06/24 03:29:02;;;;;;;1.38;0.90;;;26.40;53.60;;;;;;5023203;28;20130;-65
2022/06/24 03:31:28;;;;;;;1.73;0.80;;;26.40;53.60;;;;;;5019908;28;20128;-66
2022/06/24 03:33:55;;;;;;;1.25;0.80;;;26.40;53.60;;;;;;5023107;28;20143;-67
2022/06/24 03:36:21;;;;;;;1.20;0.80;;;26.40;53.60;;;;;;5023438;28;20044;-66
2022/06/24 03:38:47;;;;;;;1.40;0.90;;;26.40;53.60;;;;;;5032296;28;20033;-64
2022/06/24 03:41:13;;;;;;;0.93;0.68;;;26.40;53.60;;;;;;5023615;28;20043;-66
2022/06/24 03:43:39;;;;;;;1.20;0.70;;;26.40;54.20;;;;;;5028775;28;20021;-64
2022/06/24 03:46:04;;;;;;;1.50;0.80;;;26.40;53.70;;;;;;5025353;28;20040;-66
2022/06/24 03:48:30;;;;;;;1.95;0.90;;;26.40;54.10;;;;;;5024036;28;20028;-66
2022/06/24 03:50:56;;;;;;;1.38;0.80;;;26.40;53.70;;;;;;5022432;28;20028;-65
2022/06/24 03:53:22;;;;;;;0.98;0.73;;;26.40;53.60;;;;;;5017225;28;20052;-66
2022/06/24 03:55:52;;;;;;;2.03;1.00;;;26.40;53.60;;;;;;5030047;28;20087;-64
2022/06/24 03:58:18;;;;;;;2.30;0.98;;;26.40;53.80;;;;;;5031814;28;20025;-65
2022/06/24 04:00:44;;;;;;;4.38;1.38;;;26.40;54.20;;;;;;5010969;28;20041;-62
2022/06/24 04:03:10;;;;;;;3.13;1.10;;;26.20;54.20;;;;;;5028667;28;20429;-65
2022/06/24 04:05:36;;;;;;;3.88;1.20;;;26.10;54.50;;;;;;5030986;28;20104;-65
2022/06/24 04:08:02;;;;;;;2.65;1.05;;;25.90;54.90;;;;;;5022719;28;20045;-64
2022/06/24 04:10:27;;;;;;;3.88;1.20;;;25.70;55.10;;;;;;5024326;28;20032;-63
2022/06/24 04:12:53;;;;;;;2.95;1.10;;;25.60;55.40;;;;;;5029052;28;20860;-66
2022/06/24 04:15:19;;;;;;;1.77;0.80;;;25.60;55.40;;;;;;5027924;28;20036;-66
2022/06/24 04:17:47;;;;;;;2.03;1.10;;;25.60;55.50;;;;;;5023739;28;20034;-65
2022/06/24 04:20:20;;;;;;;2.00;0.90;;;25.60;55.40;;;;;;5027469;28;20037;-63
2022/06/24 04:22:46;;;;;;;2.72;1.10;;;25.70;55.50;;;;;;5026756;28;20048;-63
2022/06/24 04:25:12;;;;;;;2.15;0.90;;;25.70;55.40;;;;;;5028721;28;20033;-62
2022/06/24 04:27:38;;;;;;;3.00;1.17;;;25.70;55.40;;;;;;5029121;28;20024;-66
2022/06/24 04:30:07;;;;;;;2.95;1.08;;;25.60;55.50;;;;;;5030687;28;20033;-63
2022/06/24 04:32:33;;;;;;;3.42;1.23;;;25.60;55.70;;;;;;5023895;28;20041;-65
2022/06/24 04:34:58;;;;;;;2.35;1.13;;;25.50;55.90;;;;;;5032787;28;20032;-64
2022/06/24 04:37:24;;;;;;;2.25;1.00;;;25.40;55.90;;;;;;5024064;28;20040;-65
2022/06/24 04:39:50;;;;;;;2.50;1.10;;;25.30;56.30;;;;;;5028656;28;20047;-66
2022/06/24 04:42:16;;;;;;;1.85;0.82;;;25.30;56.40;;;;;;5030184;28;21030;-66
2022/06/24 04:44:42;;;;;;;1.90;0.82;;;25.30;56.20;;;;;;5030748;28;20036;-66
2022/06/24 04:47:07;;;;;;;1.85;0.77;;;25.30;55.90;;;;;;5024907;28;20033;-66
2022/06/24 04:49:33;;;;;;;1.65;0.75;;;25.40;55.70;;;;;;5030117;28;20057;-65
2022/06/24 04:51:59;;;;;;;1.92;0.73;;;25.40;55.40;;;;;;5028908;28;20117;-64
2022/06/24 04:54:24;;;;;;;1.80;0.80;;;25.40;55.30;;;;;;5021926;28;20039;-65
2022/06/24 04:56:50;;;;;;;1.35;0.73;;;25.50;55.20;;;;;;5026066;28;20067;-64
2022/06/24 04:59:16;;;;;;;2.20;0.95;;;25.50;55.10;;;;;;5023418;28;20067;-65
2022/06/24 05:01:41;;;;;;;2.10;0.77;;;25.50;55.10;;;;;;5030971;28;20049;-65
2022/06/24 05:04:07;;;;;;;2.60;0.90;;;25.50;55.00;;;;;;5022335;28;20124;-65
2022/06/24 05:06:33;;;;;;;1.60;0.70;;;25.50;54.90;;;;;;5025596;28;20132;-66
2022/06/24 05:08:58;;;;;;;1.70;0.70;;;25.60;55.00;;;;;;5025937;28;20044;-65
2022/06/24 05:11:24;;;;;;;2.15;0.93;;;25.60;55.00;;;;;;5018577;28;20025;-64
2022/06/24 05:13:50;;;;;;;1.80;0.80;;;25.60;54.90;;;;;;5027333;28;20047;-65
2022/06/24 05:16:16;;;;;;;1.33;0.70;;;25.60;55.40;;;;;;5024961;28;20535;-64
2022/06/24 05:18:42;;;;;;;1.48;0.73;;;25.60;54.80;;;;;;5029147;28;20036;-64
2022/06/24 05:21:08;;;;;;;1.77;0.70;;;25.60;54.80;;;;;;5027647;28;20033;-64
2022/06/24 05:23:33;;;;;;;1.40;0.60;;;25.60;54.80;;;;;;5031626;28;20033;-64
2022/06/24 05:25:59;;;;;;;1.40;0.70;;;25.60;54.80;;;;;;5028394;28;20045;-65
2022/06/24 05:28:25;;;;;;;1.50;0.77;;;25.60;54.70;;;;;;5030258;28;20358;-65
2022/06/24 05:30:57;;;;;;;2.05;1.10;;;25.60;54.70;;;;;;5027879;28;20037;-65
2022/06/24 05:33:24;;;;;;;1.63;0.73;;;25.70;54.80;;;;;;5023700;28;20953;-65
2022/06/24 05:35:55;;;;;;;3.08;0.70;;;25.60;54.60;;;;;;5024152;28;20377;-63
2022/06/24 05:38:22;;;;;;;0.90;0.60;;;25.70;54.70;;;;;;5029649;28;20087;-65
2022/06/24 05:40:52;;;;;;;1.50;0.68;;;25.60;54.60;;;;;;5029888;28;20044;-64
2022/06/24 05:43:18;;;;;;;1.65;0.80;;;25.70;54.70;;;;;;5027819;28;20033;-64
2022/06/24 05:45:45;;;;;;;1.58;0.80;;;25.70;54.60;;;;;;5027207;28;20393;-64
2022/06/24 05:48:11;;;;;;;1.17;0.60;;;25.70;54.60;;;;;;5026848;28;20032;-65
2022/06/24 05:50:37;;;;;;;1.92;0.70;;;25.70;54.60;;;;;;5025986;28;20025;-62
2022/06/24 05:55:48;;;;;;;1.73;0.70;;;25.70;54.60;;;;;;5030645;28;20044;-64
2022/06/24 05:58:14;;;;;;;1.17;0.68;;;25.70;54.60;;;;;;5031050;28;20044;-65
2022/06/24 06:00:40;;;;;;;1.38;0.77;;;25.70;54.60;;;;;;5025714;28;20094;-63
2022/06/24 06:03:06;;;;;;;2.72;0.95;;;25.70;54.60;;;;;;5025973;28;20021;-64
2022/06/24 06:05:31;;;;;;;1.90;0.80;;;25.70;54.60;;;;;;5027220;28;20067;-65
2022/06/24 06:07:57;;;;;;;1.00;0.60;;;25.70;54.50;;;;;;5028465;28;20029;-64
2022/06/24 06:10:22;;;;;;;1.48;0.73;;;25.70;54.40;;;;;;5023764;28;20029;-64
2022/06/24 06:12:48;;;;;;;1.85;0.70;;;25.70;54.40;;;;;;5026413;28;20465;-65
2022/06/24 06:15:14;;;;;;;1.33;0.82;;;25.70;54.40;;;;;;5029516;28;20072;-64
2022/06/24 06:17:40;;;;;;;1.38;0.63;;;25.70;54.40;;;;;;5029629;28;20976;-64
2022/06/24 06:20:06;;;;;;;1.10;0.70;;;25.70;54.40;;;;;;5027599;28;20048;-65
2022/06/24 06:22:32;;;;;;;1.00;0.68;;;25.70;54.40;;;;;;5031724;28;20538;-64
2022/06/24 06:24:58;;;;;;;1.65;0.70;;;25.70;54.40;;;;;;5028333;28;20112;-65
2022/06/24 06:27:23;;;;;;;1.55;0.70;;;25.70;54.40;;;;;;5032977;28;20592;-64
2022/06/24 06:29:49;;;;;;;1.08;0.70;;;25.70;54.40;;;;;;5029945;28;20449;-64
2022/06/24 06:32:15;;;;;;;1.50;0.70;;;25.70;54.30;;;;;;5021763;28;20033;-62
2022/06/24 06:34:40;;;;;;;1.98;0.70;;;25.70;54.30;;;;;;5028620;28;20040;-64
2022/06/24 06:37:06;;;;;;;1.88;0.77;;;25.70;54.30;;;;;;5023543;28;20032;-64
2022/06/24 06:39:32;;;;;;;1.17;0.70;;;25.70;54.30;;;;;;5027827;28;20033;-64
2022/06/24 06:41:57;;;;;;;1.60;0.73;;;25.70;54.30;;;;;;5029452;28;20894;-64
2022/06/24 06:44:23;;;;;;;1.10;0.60;;;25.70;54.20;;;;;;5027560;28;20457;-65
2022/06/24 06:46:49;;;;;;;1.95;0.90;;;25.70;54.20;;;;;;5025858;28;20042;-65
2022/06/24 06:49:15;;;;;;;1.02;0.60;;;25.70;54.30;;;;;;5025430;28;20029;-64
2022/06/24 06:51:40;;;;;;;1.73;0.82;;;25.70;54.30;;;;;;5020768;28;20025;-65
2022/06/24 06:54:06;;;;;;;1.00;0.68;;;25.70;54.20;;;;;;5028323;28;20122;-65
2022/06/24 06:56:32;;;;;;;1.65;0.63;;;25.70;54.20;;;;;;5024618;28;20508;-64
2022/06/24 06:58:58;;;;;;;1.40;0.70;;;25.70;54.20;;;;;;5029645;28;20410;-61
2022/06/24 07:01:23;;;;;;;2.28;0.70;;;25.70;54.20;;;;;;5023337;28;20049;-64
2022/06/24 07:03:49;;;;;;;1.73;0.60;;;25.70;54.20;;;;;;5028091;28;20104;-64
2022/06/24 07:06:15;;;;;;;1.77;0.90;;;25.70;54.20;;;;;;5025790;28;20040;-65
2022/06/24 07:08:40;;;;;;;1.00;0.60;;;25.70;54.20;;;;;;5030475;28;20020;-63
2022/06/24 07:11:06;;;;;;;1.05;0.70;;;25.70;54.20;;;;;;5026629;28;20118;-61
2022/06/24 07:13:32;;;;;;;0.90;0.60;;;25.70;54.10;;;;;;5030672;28;20354;-61
2022/06/24 07:15:58;;;;;;;1.42;0.70;;;25.70;54.10;;;;;;5027328;28;20029;-64
2022/06/24 07:18:23;;;;;;;2.13;0.70;;;25.70;54.10;;;;;;5026412;28;20861;-64
2022/06/24 07:20:49;;;;;;;0.88;0.68;;;25.70;54.10;;;;;;5029782;28;20041;-64
2022/06/24 07:23:15;;;;;;;1.13;0.60;;;25.70;54.10;;;;;;5028946;28;20029;-64
2022/06/24 07:25:41;;;;;;;1.25;0.70;;;25.70;54.00;;;;;;5028941;28;20511;-62
2022/06/24 07:28:07;;;;;;;1.15;0.50;;;25.70;54.00;;;;;;5024969;28;20025;-61
2022/06/24 07:30:32;;;;;;;1.20;0.70;;;25.70;54.00;;;;;;5026512;28;20025;-64
2022/06/24 07:32:58;;;;;;;1.13;0.60;;;25.70;54.00;;;;;;5027202;28;20037;-61
2022/06/24 07:35:24;;;;;;;1.25;0.60;;;25.70;54.00;;;;;;5029464;28;20029;-64
2022/06/24 07:37:50;;;;;;;1.88;0.68;;;25.70;54.00;;;;;;5028036;28;20029;-62
2022/06/24 07:40:15;;;;;;;0.85;0.57;;;25.80;54.10;;;;;;5026313;28;20494;-64
2022/06/24 07:42:44;;;;;;;0.82;0.55;;;25.70;54.00;;;;;;5034218;28;20052;-64
2022/06/24 07:45:12;;;;;;;1.15;0.70;;;25.70;54.00;;;;;;5032488;28;20078;-64
2022/06/24 07:47:37;;;;;;;1.00;0.60;;;25.80;54.00;;;;;;5032871;28;20436;-64
2022/06/24 07:50:04;;;;;;;1.30;0.70;;;25.80;54.00;;;;;;5029565;28;20139;-64
2022/06/24 07:52:30;;;;;;;0.50;0.50;;;25.70;53.90;;;;;;5022281;28;20120;-64
2022/06/24 07:57:42;;;;;;;1.08;0.60;;;25.80;54.00;;;;;;5018336;28;20080;-64
2022/06/24 08:00:08;;;;;;;0.40;0.40;;;25.70;53.90;;;;;;5028321;28;20641;-64
2022/06/24 08:02:34;;;;;;;0.75;0.60;;;25.80;53.90;;;;;;5032246;28;20052;-63
2022/06/24 08:04:59;;;;;;;0.98;0.65;;;25.70;53.90;;;;;;5025972;28;20033;-64
2022/06/24 08:07:25;;;;;;;1.40;0.70;;;25.80;53.90;;;;;;5027008;28;20048;-63
2022/06/24 08:09:51;;;;;;;1.17;0.63;;;25.80;53.90;;;;;;5027918;28;20540;-64
2022/06/24 08:12:16;;;;;;;1.15;0.60;;;25.80;53.90;;;;;;5026333;28;20071;-64
2022/06/24 08:14:42;;;;;;;0.90;0.60;;;25.80;53.90;;;;;;5028243;28;20056;-64
2022/06/24 08:17:07;;;;;;;0.93;0.60;;;25.80;53.80;;;;;;5030069;28;20064;-61
2022/06/24 08:19:33;;;;;;;1.40;0.65;;;25.80;53.90;;;;;;5024838;28;20044;-64
2022/06/24 08:21:58;;;;;;;1.48;0.60;;;25.80;53.80;;;;;;5019605;28;20358;-63
2022/06/24 08:24:24;;;;;;;1.15;0.60;;;25.80;53.80;;;;;;5026773;28;20017;-63
2022/06/24 08:26:50;;;;;;;0.85;0.50;;;25.80;53.80;;;;;;5029131;28;20060;-63
2022/06/24 08:29:17;;;;;;;0.98;0.52;;;25.80;53.90;;;;;;5024959;28;20974;-64
2022/06/24 08:31:43;;;;;;;1.35;0.70;;;25.80;53.80;;;;;;5025367;28;20107;-64
2022/06/24 08:34:09;;;;;;;0.70;0.60;;;25.80;53.80;;;;;;5021332;28;20131;-61
2022/06/24 08:36:36;;;;;;;1.10;0.60;;;25.70;53.70;;;;;;5018085;28;20037;-64
2022/06/24 08:39:02;;;;;;;0.55;0.50;;;25.80;54.00;;;;;;5017176;28;20029;-63
2022/06/24 08:41:28;;;;;;;1.25;0.50;;;25.80;54.00;;;;;;5000312;28;20099;-62
2022/06/24 08:43:55;;;;;;;0.68;0.45;;;25.80;54.10;;;;;;5015033;28;20192;-63
2022/06/24 08:46:21;;;;;;;1.20;0.70;;;25.90;54.10;;;;;;5018937;28;20039;-64
2022/06/24 08:48:49;;;;;;;1.20;0.70;;;25.90;54.30;;;;;;5022248;28;20032;-63
2022/06/24 08:51:15;;;;;;;0.77;0.60;;;25.90;54.20;;;;;;5019135;28;20035;-63
2022/06/24 08:53:42;;;;;;;0.60;0.47;;;25.90;54.20;;;;;;5020931;28;20037;-60
2022/06/24 08:56:08;;;;;;;0.68;0.35;;;26.00;54.10;;;;;;5020860;28;20374;-63
2022/06/24 08:58:34;;;;;;;1.08;0.60;;;26.00;54.10;;;;;;5020855;28;20029;-63
2022/06/24 09:01:00;;;;;;;0.90;0.60;;;26.00;54.00;;;;;;5013921;28;20033;-64
2022/06/24 09:03:26;;;;;;;1.30;0.70;;;26.10;54.00;;;;;;5016199;28;20102;-67
2022/06/24 09:05:51;;;;;;;1.13;0.52;;;26.10;53.90;;;;;;5014400;28;20032;-63
2022/06/24 09:08:17;;;;;;;1.35;0.55;;;26.10;53.90;;;;;;5019411;28;20576;-63
2022/06/24 09:11:06;;;;;;;0.52;0.50;;;26.10;53.80;;;;;;5016697;28;20571;-64
2022/06/24 09:13:42;;;;;;;1.10;0.60;;;26.20;53.80;;;;;;5015621;28;20108;-63
2022/06/24 09:16:09;;;;;;;1.13;0.68;;;26.20;53.80;;;;;;5009988;28;20776;-63
2022/06/24 09:18:34;;;;;;;0.55;0.50;;;26.20;53.80;;;;;;5018913;28;20132;-64
2022/06/24 09:21:00;;;;;;;0.50;0.50;;;26.20;53.80;;;;;;5019237;28;20037;-63
2022/06/24 09:23:25;;;;;;;1.08;0.60;;;26.30;53.90;;;;;;5018526;28;20124;-63
2022/06/24 09:25:57;;;;;;;0.65;0.50;;;26.30;53.70;;;;;;5015905;28;20040;-64
2022/06/24 09:28:32;;;;;;;0.77;0.57;;;26.30;53.60;;;;;;5017526;28;20640;-64
2022/06/24 09:31:06;;;;;;;0.75;0.55;;;26.30;53.70;;;;;;5013529;28;20060;-63
2022/06/24 09:33:40;;;;;;;0.68;0.60;;;26.40;53.80;;;;;;5017233;28;20412;-62
2022/06/24 09:36:08;;;;;;;0.50;0.50;;;26.40;53.60;;;;;;5018412;28;20032;-62
2022/06/24 09:39:02;;;;;;;0.95;0.68;;;26.40;53.60;;;;;;5015368;28;20049;-64
2022/06/24 09:41:28;;;;;;;0.52;0.52;;;26.40;53.60;;;;;;5017297;28;20037;-63
2022/06/24 09:43:57;;;;;;;0.88;0.60;;;26.50;53.60;;;;;;5017257;28;20044;-64
2022/06/24 09:46:23;;;;;;;;;;;26.50;53.70;;;;;;5021067;28;20028;-63
2022/06/24 09:48:57;;;;;;;1.23;0.70;;;26.50;53.60;;;;;;5015594;28;19939;-63
2022/06/24 09:51:23;;;;;;;1.88;0.80;;;26.50;53.50;;;;;;5017182;28;20045;-61
2022/06/24 09:53:49;;;;;;;1.45;0.60;;;26.50;53.50;;;;;;5022788;28;20045;-60
2022/06/24 09:56:15;;;;;;;1.33;0.60;;;26.60;53.50;;;;;;5019233;28;20037;-63
2022/06/24 09:58:43;;;;;;;2.00;0.60;;;26.60;53.50;;;;;;5017825;28;20044;-64
2022/06/24 10:01:09;;;;;;;1.13;0.60;;;26.60;53.40;;;;;;5012642;28;20135;-64
2022/06/24 10:03:37;;;;;;;2.65;0.60;;;26.60;53.50;;;;;;5015417;28;20280;-64
2022/06/24 10:06:05;;;;;;;0.73;0.57;;;26.70;53.70;;;;;;5000501;28;20049;-65
2022/06/24 10:08:33;;;;;;;1.67;0.50;;;26.70;53.50;;;;;;5017099;28;20045;-64
2022/06/24 10:11:00;;;;;;;0.95;0.60;;;26.70;53.50;;;;;;5010873;28;20045;-64
2022/06/24 10:13:32;;;;;;;0.82;0.50;;;26.70;53.50;;;;;;5017977;28;20183;-64
2022/06/24 10:16:03;;;;;;;1.42;0.60;;;26.70;53.20;;;;;;5014812;28;20063;-64
2022/06/24 10:18:39;;;;;;;1.85;0.70;;;26.80;53.20;;;;;;5013686;28;20029;-63
2022/06/24 10:21:08;;;;;;;1.48;0.70;;;26.80;53.10;;;;;;5015686;28;20159;-64
2022/06/24 10:23:44;;;;;;;1.75;0.80;;;26.90;53.00;;;;;;5013222;28;20025;-64
2022/06/24 10:26:25;;;;;;;0.77;0.60;;;26.90;52.90;;;;;;5017447;28;20036;-63
2022/06/24 10:29:00;;;;;;;1.40;0.70;;;26.90;52.80;;;;;;5014573;28;20056;-62
2022/06/24 10:31:52;;;;;;;2.17;0.70;;;26.90;52.80;;;;;;5012728;28;20769;-63
2022/06/24 10:34:25;;;;;;;2.15;0.80;;;26.90;53.30;;;;;;5009368;28;20060;-64
2022/06/24 10:36:52;;;;;;;1.23;0.63;;;27.00;52.70;;;;;;5022218;28;20098;-64
2022/06/24 10:39:20;;;;;;;0.98;0.60;;;27.00;52.70;;;;;;5026602;28;20041;-63
2022/06/24 10:41:45;;;;;;;1.30;0.70;;;27.00;52.50;;;;;;5026541;28;20044;-64
2022/06/24 10:44:30;;;;;;;1.40;0.70;;;27.00;52.50;;;;;;5028348;28;20033;-62
2022/06/24 10:47:05;;;;;;;1.00;0.50;;;27.00;52.50;;;;;;5007965;28;20168;-62
2022/06/24 10:49:54;;;;;;;1.52;0.60;;;27.00;52.50;;;;;;5025385;28;20159;-63
2022/06/24 10:52:38;;;;;;;0.63;0.50;;;27.00;52.50;;;;;;5028709;28;20037;-65
2022/06/24 10:55:16;;;;;;;1.38;0.70;;;27.00;52.50;;;;;;5029251;28;20029;-64
2022/06/24 10:58:02;;;;;;;1.13;0.80;;;27.00;52.40;;;;;;5026217;28;20025;-63
2022/06/24 11:00:48;;;;;;;1.38;0.60;;;27.00;52.50;;;;;;5026008;28;20521;-64
2022/06/24 11:03:18;;;;;;;1.90;0.70;;;27.00;52.60;;;;;;5028567;28;20077;-63
2022/06/24 11:05:46;;;;;;;1.35;0.70;;;27.00;52.50;;;;;;5030952;28;20346;-64
2022/06/24 11:08:20;;;;;;;1.20;0.70;;;27.00;52.40;;;;;;5022666;28;20068;-63
2022/06/24 11:10:47;;;;;;;1.08;0.60;;;27.00;52.40;;;;;;5031063;28;20029;-64
2022/06/24 11:13:13;;;;;;;1.70;0.70;;;27.00;52.40;;;;;;5036118;28;20028;-61
2022/06/24 11:15:59;;;;;;;0.93;0.55;;;26.90;52.40;;;;;;5031493;28;20036;-64
2022/06/24 11:18:30;;;;;;;0.82;0.60;;;27.00;52.40;;;;;;5031135;28;20040;-64
2022/06/24 11:21:02;;;;;;;1.52;0.60;;;27.00;52.40;;;;;;5020663;28;20041;-63
2022/06/24 11:23:30;;;;;;;1.15;0.60;;;27.00;52.40;;;;;;5033996;28;20028;-64
2022/06/24 11:26:05;;;;;;;1.40;0.70;;;27.00;52.40;;;;;;5034027;28;20511;-64
2022/06/24 11:28:37;;;;;;;0.98;0.60;;;27.00;52.40;;;;;;5026484;28;20025;-63
2022/06/24 11:31:16;;;;;;;1.60;0.70;;;27.00;52.50;;;;;;5021716;28;20034;-64
2022/06/24 11:33:43;;;;;;;0.80;0.60;;;27.00;52.50;;;;;;5021017;28;20033;-65
2022/06/24 11:36:09;;;;;;;1.75;0.80;;;27.00;52.50;;;;;;5015487;28;20687;-66
2022/06/24 11:38:53;;;;;;;1.35;0.70;;;26.90;52.40;;;;;;5024536;28;20051;-66
2022/06/24 11:41:29;;;;;;;0.95;0.60;;;26.90;52.40;;;;;;5026948;28;21400;-65
2022/06/24 11:43:56;;;;;;;1.50;0.57;;;26.90;52.40;;;;;;5015064;28;20056;-64
2022/06/24 11:46:22;;;;;;;1.15;0.70;;;26.90;52.30;;;;;;5036881;28;20056;-63
2022/06/24 11:48:48;;;;;;;0.68;0.60;;;26.90;52.30;;;;;;5025266;28;20037;-65
2022/06/24 11:51:21;;;;;;;0.93;0.60;;;26.90;52.30;;;;;;5031542;28;20032;-65
2022/06/24 11:53:58;;;;;;;1.17;0.70;;;26.90;52.20;;;;;;5026037;28;20036;-63
2022/06/24 11:56:29;;;;;;;0.70;0.57;;;26.90;52.30;;;;;;5026487;28;20036;-65
2022/06/24 11:58:58;;;;;;;1.20;0.60;;;26.90;52.30;;;;;;5022441;28;20033;-65
2022/06/24 12:01:26;;;;;;;1.60;0.70;;;26.90;52.20;;;;;;5027804;28;20087;-62
2022/06/24 12:03:55;;;;;;;0.88;0.60;;;26.90;52.20;;;;;;5033778;28;20013;-65
2022/06/24 12:06:22;;;;;;;0.98;0.55;;;26.90;52.30;;;;;;5025099;28;20028;-65
2022/06/24 12:08:48;;;;;;;1.35;0.63;;;26.90;52.30;;;;;;5029380;28;20056;-65
2022/06/24 12:11:16;;;;;;;0.90;0.60;;;26.90;52.30;;;;;;5030734;28;20457;-64
2022/06/24 12:13:42;;;;;;;1.35;0.68;;;26.90;52.30;;;;;;5033707;28;20075;-65
2022/06/24 12:16:08;;;;;;;0.90;0.55;;;26.90;52.30;;;;;;5021412;28;20043;-64
2022/06/24 12:18:35;;;;;;;1.25;0.75;;;26.90;52.30;;;;;;5031300;28;20032;-64
2022/06/24 12:21:06;;;;;;;0.50;0.50;;;26.90;52.30;;;;;;5025424;28;20055;-65
2022/06/24 12:23:33;;;;;;;1.33;0.60;;;26.90;52.30;;;;;;5021662;28;20040;-65
2022/06/24 12:26:03;;;;;;;1.20;0.70;;;26.90;52.30;;;;;;5030621;28;20029;-64
2022/06/24 12:28:29;;;;;;;0.70;0.60;;;26.80;52.80;;;;;;5025222;28;20036;-64
2022/06/24 12:30:55;;;;;;;1.08;0.70;;;26.80;52.30;;;;;;5025892;28;20038;-62
2022/06/24 12:33:20;;;;;;;1.08;0.70;;;26.80;52.30;;;;;;5024039;28;20029;-65
2022/06/24 12:35:49;;;;;;;0.77;0.60;;;26.80;52.30;;;;;;5021556;28;20028;-63
2022/06/24 12:38:14;;;;;;;0.70;0.60;;;26.80;52.30;;;;;;5027581;28;20031;-65
2022/06/24 12:40:41;;;;;;;0.88;0.63;;;26.80;52.30;;;;;;5022509;28;20077;-61
2022/06/24 12:43:14;;;;;;;0.80;0.50;;;26.80;52.30;;;;;;5021958;28;21022;-65
2022/06/24 12:45:42;;;;;;;0.80;0.63;;;26.80;52.30;;;;;;5021175;28;21364;-65
2022/06/24 12:51:06;;;;;;;1.08;0.60;;;26.80;52.30;;;;;;5028083;28;20063;-64
2022/06/24 12:53:32;;;;;;;1.05;0.70;;;26.80;52.30;;;;;;5032551;28;20036;-64
2022/06/24 12:55:58;;;;;;;0.50;0.50;;;26.80;52.40;;;;;;5024085;28;20037;-64
2022/06/24 12:58:24;;;;;;;1.25;0.60;;;26.80;52.30;;;;;;5024265;28;20033;-64
2022/06/24 13:00:50;;;;;;;0.63;0.50;;;26.80;52.30;;;;;;5025519;28;20041;-64
2022/06/24 13:03:20;;;;;;;1.13;0.70;;;26.80;52.30;;;;;;5023076;28;20140;-62
2022/06/24 13:05:48;;;;;;;1.70;0.70;;;26.80;52.30;;;;;;5025369;28;20394;-65